EFKI

Kajaani Airport

Kajaani, Finland
METAR EFKI 210420Z AUTO 09005KT 3300 -SN OVC030 M11/M13 Q1011
Observed Flight Rules
Jan-21 @ 04:20 UTC (25 minutes ago) Instrument Flight Rules
Wind Visibility Clouds Conditions
90° at 5 knots 3,299 meters
  • Overcast at 3,000' AGL
  • Light Snow
Temperatures Readings
Current -11°C / 12°F
Dewpoint -13°C / 9°F
Humidity 85%
Altimeter 29.85" Hg
Pressure 1011 hPa
Elevation 136
METAR EFKI 210420Z AUTO 09005KT 3300 -SN OVC030 M11/M13 Q1011
Observed Flight Rules
Jan-21 @ 04:20 UTC
(25 minutes ago)
IFR
Wind Visibility
90° at 5 knots 3,299 meters
Clouds
  • Overcast at 3,000' AGL
Conditions
  • Light Snow
Temperature Dewpoint
-11°C / 12°F -13°C / 9°F
Humidity Altimeter Pressure
85% 29.85" Hg 1011 hPa